Terminal Aerodrome Forecast
Issued by NWS La Crosse, WI

Home | Current Version | Previous Version | Text Only | Print | Product List | Glossary On
Versions: 1 2 3 4 5 6 7 8 9 10 11 12 13 14 15
000
FTUS43 KARX 242325
TAFLSE
TAF
KLSE 242325Z 2500/2524 30007KT P6SM OVC220
     FM250600 VRB03KT P6SM BKN250
     FM251700 29010KT P6SM SCT250=

USA.gov is the U.S. government's official web portal to all federal, state and local government web resources and services.